createdAt,value
2024-02-24T00:02:16.645Z,94357.78
2024-02-24T00:04:43.620Z,94363.81
2024-02-24T00:07:15.354Z,94369.47
2024-02-24T00:09:46.879Z,94371.59
2024-02-24T00:12:13.876Z,94375.88
2024-02-24T00:14:42.931Z,94372.31
2024-02-24T00:17:16.919Z,94365.03
2024-02-24T00:19:48.857Z,94375.88
2024-02-24T00:22:17.983Z,94369.81
2024-02-24T00:24:49.282Z,94373.88
2024-02-24T00:27:20.975Z,94365.63
2024-02-24T00:29:52.260Z,94382.34
2024-02-24T00:32:21.713Z,94390.09
2024-02-24T00:34:50.720Z,94380.00
2024-02-24T00:37:17.590Z,94377.66
2024-02-24T00:39:46.892Z,94382.00
2024-02-24T00:42:13.666Z,94360.94
2024-02-24T00:44:43.400Z,94361.09
2024-02-24T00:47:15.208Z,94364.09
2024-02-24T00:49:44.547Z,94359.50
2024-02-24T00:52:13.713Z,94366.69
2024-02-24T00:54:42.836Z,94368.69
2024-02-24T00:57:14.448Z,94378.47
2024-02-24T00:59:46.406Z,94382.56
2024-02-24T01:02:15.635Z,94373.94
2024-02-24T01:04:44.882Z,94355.75
2024-02-24T01:07:16.327Z,94370.69
2024-02-24T01:09:45.288Z,94364.81
2024-02-24T01:12:14.663Z,94365.44
2024-02-24T01:14:46.949Z,94360.28
2024-02-24T01:17:18.785Z,94373.75
2024-02-24T01:19:45.590Z,94367.34
2024-02-24T01:22:14.196Z,94372.75
2024-02-24T01:24:45.738Z,94397.38
2024-02-24T01:27:15.004Z,94390.91
2024-02-24T01:29:46.739Z,94385.91
2024-02-24T01:32:15.999Z,94389.47
2024-02-24T01:34:47.787Z,94383.91
2024-02-24T01:37:17.044Z,94380.34
2024-02-24T01:39:46.176Z,94389.00
2024-02-24T01:42:15.412Z,94399.47
2024-02-24T01:44:44.721Z,94397.31
2024-02-24T01:47:18.124Z,94396.41
2024-02-24T01:49:46.001Z,94391.69
2024-02-24T01:52:20.330Z,94396.06
2024-02-24T01:54:50.105Z,94401.78
2024-02-24T01:57:22.085Z,94396.72
2024-02-24T01:59:49.210Z,94372.19
2024-02-24T02:02:18.877Z,94425.41
2024-02-24T02:04:47.992Z,94403.47
2024-02-24T02:07:17.484Z,94415.41
2024-02-24T02:09:59.837Z,94408.75
2024-02-24T02:12:29.571Z,94422.31
2024-02-24T02:14:59.058Z,94409.94
2024-02-24T02:17:25.944Z,94425.06
2024-02-24T02:20:00.778Z,94423.50
2024-02-24T02:22:32.705Z,94430.53
2024-02-24T02:25:01.975Z,94425.44
2024-02-24T02:27:28.770Z,94406.94
2024-02-24T02:30:01.404Z,94418.72
2024-02-24T02:32:30.626Z,94420.16
2024-02-24T02:35:00.166Z,94410.44
2024-02-24T02:37:32.013Z,94424.09
2024-02-24T02:40:02.097Z,94408.63
2024-02-24T02:42:33.423Z,94413.69
2024-02-24T02:45:04.676Z,94419.25
2024-02-24T02:47:31.690Z,94424.09
2024-02-24T02:49:58.669Z,94428.91
2024-02-24T02:52:27.730Z,94425.63
2024-02-24T02:54:56.982Z,94437.66
2024-02-24T02:57:26.021Z,94422.63
2024-02-24T02:59:52.882Z,94426.25
2024-02-24T03:02:22.096Z,94421.00
2024-02-24T03:04:48.999Z,94424.44
2024-02-24T03:07:18.149Z,94434.84
2024-02-24T03:09:48.918Z,94439.03
2024-02-24T03:12:18.836Z,94433.72
2024-02-24T03:14:50.566Z,94438.00
2024-02-24T03:17:19.792Z,94440.09
2024-02-24T03:19:46.669Z,94436.09
2024-02-24T03:22:15.714Z,94452.56
2024-02-24T03:24:47.975Z,94453.28
2024-02-24T03:27:15.251Z,94432.59
2024-02-24T03:29:44.609Z,94465.75
2024-02-24T03:32:13.821Z,94436.50
2024-02-24T03:34:40.861Z,94462.47
2024-02-24T03:37:07.685Z,94462.38
2024-02-24T03:39:36.818Z,94464.97
2024-02-24T03:42:06.092Z,94470.13
2024-02-24T03:44:39.811Z,94447.94
2024-02-24T03:47:11.880Z,94458.84
2024-02-24T03:49:43.168Z,94462.94
2024-02-24T03:52:10.055Z,94464.03
2024-02-24T03:54:39.237Z,94457.25
2024-02-24T03:57:08.243Z,94466.44
2024-02-24T03:59:40.316Z,94468.53
2024-02-24T04:02:09.362Z,94455.59
2024-02-24T04:04:38.613Z,94459.06
2024-02-24T04:07:13.760Z,94463.06
2024-02-24T04:09:41.963Z,94459.94
2024-02-24T04:12:08.987Z,94458.38
2024-02-24T04:14:35.961Z,94461.81
2024-02-24T04:17:05.232Z,94453.78
2024-02-24T04:19:39.809Z,94468.63
2024-02-24T04:22:06.609Z,94454.13
2024-02-24T04:24:35.692Z,94471.97
2024-02-24T04:27:07.277Z,94463.22
2024-02-24T04:29:38.910Z,94479.06
2024-02-24T04:32:06.015Z,94473.31
2024-02-24T04:34:35.235Z,94466.16
2024-02-24T04:37:06.942Z,94478.44
2024-02-24T04:39:40.843Z,94478.03
2024-02-24T04:42:13.125Z,94470.25
2024-02-24T04:44:42.438Z,94481.16
2024-02-24T04:47:12.210Z,94479.50
2024-02-24T04:49:41.312Z,94480.06
2024-02-24T04:52:10.676Z,94460.34
2024-02-24T04:54:41.884Z,94490.16
2024-02-24T04:57:08.703Z,94483.47
2024-02-24T04:59:36.493Z,94510.59
2024-02-24T05:02:05.627Z,94493.38
2024-02-24T05:04:42.257Z,94510.59
2024-02-24T05:07:09.057Z,94505.59
2024-02-24T05:09:38.207Z,94513.94
2024-02-24T05:12:07.500Z,94518.03
2024-02-24T05:14:39.437Z,94527.19
2024-02-24T05:17:09.353Z,94518.53
2024-02-24T05:19:36.551Z,94521.16
2024-02-24T05:22:05.908Z,94528.22
2024-02-24T05:24:35.213Z,94505.69
2024-02-24T05:27:07.438Z,94512.06
2024-02-24T05:29:35.059Z,94517.59
2024-02-24T05:32:04.187Z,94520.63
2024-02-24T05:34:33.336Z,94519.56
2024-02-24T05:37:02.546Z,94540.53
2024-02-24T05:39:31.756Z,94531.34
2024-02-24T05:42:01.067Z,94539.09
2024-02-24T05:44:30.275Z,94540.44
2024-02-24T05:47:01.917Z,94538.56
2024-02-24T05:49:28.827Z,94544.31
2024-02-24T05:51:55.682Z,94549.81
2024-02-24T05:54:27.379Z,94550.63
2024-02-24T05:56:54.212Z,94539.78
2024-02-24T05:59:23.310Z,94517.16
2024-02-24T06:01:50.140Z,94547.28
2024-02-24T06:04:19.128Z,72854.09
2024-02-24T06:06:49.142Z,72854.09
2024-02-24T06:09:18.660Z,72854.09
2024-02-24T06:11:45.544Z,72854.09
2024-02-24T06:14:14.605Z,72854.09
2024-02-24T06:16:43.964Z,72854.09
2024-02-24T06:19:13.134Z,72854.09
2024-02-24T06:21:42.290Z,72854.09
2024-02-24T06:24:09.171Z,72854.09
2024-02-24T06:26:35.999Z,72854.09
2024-02-24T06:29:05.390Z,72854.09
2024-02-24T06:31:37.130Z,72854.09
2024-02-24T06:34:08.479Z,72854.09
2024-02-24T06:36:35.890Z,72854.09
2024-02-24T06:39:08.659Z,72854.09
2024-02-24T06:41:37.997Z,72854.09
2024-02-24T06:44:05.042Z,72854.09
2024-02-24T06:46:31.904Z,72854.09
2024-02-24T06:49:01.380Z,72854.09
2024-02-24T06:51:28.397Z,72854.09
2024-02-24T06:54:00.180Z,72854.09
2024-02-24T06:56:29.458Z,72854.09
2024-02-24T06:59:03.165Z,72854.09
2024-02-24T07:01:29.962Z,72854.09
2024-02-24T07:04:04.235Z,72854.09
2024-02-24T07:06:36.054Z,72854.09
2024-02-24T07:09:05.553Z,72854.09
2024-02-24T07:11:34.890Z,72854.09
2024-02-24T07:14:04.157Z,72854.09
2024-02-24T07:16:35.741Z,72854.09
2024-02-24T07:19:05.715Z,72854.09
2024-02-24T07:21:34.677Z,72854.09
2024-02-24T07:24:07.681Z,72854.09
2024-02-24T07:26:50.856Z,72854.09
2024-02-24T07:29:25.189Z,72854.09
2024-02-24T07:31:52.086Z,72854.09
2024-02-24T07:34:19.005Z,72854.09
2024-02-24T07:36:50.625Z,72854.09
2024-02-24T07:39:22.051Z,72854.09
2024-02-24T07:41:52.011Z,72854.09
2024-02-24T07:44:21.255Z,72854.09
2024-02-24T07:46:50.442Z,72854.09
2024-02-24T07:49:21.978Z,72854.09
2024-02-24T07:51:53.738Z,72854.09
2024-02-24T07:54:20.641Z,72854.09
2024-02-24T07:56:52.292Z,72854.09
2024-02-24T07:59:19.142Z,72854.09
2024-02-24T08:01:48.353Z,72854.09
2024-02-24T08:04:17.654Z,72854.09
2024-02-24T08:06:50.003Z,72854.09
2024-02-24T08:09:19.133Z,72854.09
2024-02-24T08:11:48.320Z,72854.09
2024-02-24T08:14:17.697Z,72854.09
2024-02-24T08:16:51.612Z,72854.09
2024-02-24T08:19:23.810Z,72854.09
2024-02-24T08:21:58.239Z,72854.09
2024-02-24T08:24:27.691Z,72854.09
2024-02-24T08:26:56.998Z,72854.09
2024-02-24T08:29:28.296Z,72854.09
2024-02-24T08:31:57.491Z,72854.09
2024-02-24T08:34:26.660Z,72854.09
2024-02-24T08:36:54.289Z,72854.09
2024-02-24T08:39:21.163Z,72854.09
2024-02-24T08:41:55.044Z,72854.09
2024-02-24T08:44:21.920Z,72854.09
2024-02-24T08:46:48.751Z,72854.09
2024-02-24T08:49:18.079Z,72854.09
2024-02-24T08:51:44.898Z,72854.09
2024-02-24T08:54:22.246Z,72854.09
2024-02-24T08:56:56.322Z,72854.09
2024-02-24T08:59:25.765Z,72854.09
2024-02-24T09:01:55.579Z,72854.09
2024-02-24T09:04:26.884Z,72854.09
2024-02-24T09:06:59.009Z,72854.09
2024-02-24T09:09:33.010Z,72854.09
2024-02-24T09:12:04.556Z,72854.09
2024-02-24T09:14:36.241Z,72854.09
2024-02-24T09:17:05.635Z,72854.09
2024-02-24T09:19:35.597Z,72854.09
2024-02-24T09:22:02.463Z,72854.09
2024-02-24T09:24:31.913Z,72854.09
2024-02-24T09:27:01.330Z,72854.09
2024-02-24T09:29:30.313Z,72854.09
2024-02-24T09:31:59.551Z,72854.09
2024-02-24T09:34:28.936Z,72854.09
2024-02-24T09:36:56.640Z,72854.09
2024-02-24T09:39:28.279Z,72854.09
2024-02-24T09:41:59.741Z,72854.09
2024-02-24T09:44:32.004Z,72854.09
2024-02-24T09:47:05.151Z,72854.09
2024-02-24T09:49:32.688Z,72854.09
2024-02-24T09:52:04.882Z,72854.09
2024-02-24T09:54:34.677Z,72854.09
2024-02-24T09:57:04.900Z,72854.09
2024-02-24T09:59:35.783Z,72854.09
2024-02-24T10:02:05.024Z,72854.09
2024-02-24T10:04:36.860Z,72854.09
2024-02-24T10:07:06.683Z,72854.09
2024-02-24T10:09:38.401Z,72854.09
2024-02-24T10:12:10.137Z,72854.09
2024-02-24T10:14:39.574Z,72854.09
2024-02-24T10:17:11.319Z,72854.09
2024-02-24T10:19:43.500Z,72854.09
2024-02-24T10:22:17.493Z,72854.09
2024-02-24T10:24:50.096Z,72854.09
2024-02-24T10:27:20.120Z,72854.09
2024-02-24T10:29:54.967Z,72854.09
2024-02-24T10:32:23.159Z,72854.09
2024-02-24T10:34:50.242Z,72854.09
2024-02-24T10:37:20.617Z,72854.09
2024-02-24T10:39:55.094Z,72854.09
2024-02-24T10:42:32.441Z,72854.09
2024-02-24T10:45:02.830Z,72854.09
2024-02-24T10:47:36.798Z,72854.09
2024-02-24T10:50:12.516Z,72854.09
2024-02-24T10:52:44.830Z,72854.09
2024-02-24T10:55:20.541Z,72854.09
2024-02-24T10:57:54.724Z,72854.09
2024-02-24T11:00:33.506Z,72854.09
2024-02-24T11:03:10.899Z,72854.09
2024-02-24T11:05:40.083Z,72854.09
2024-02-24T11:08:36.413Z,72854.09
2024-02-24T11:11:11.038Z,72854.09
2024-02-24T11:14:00.053Z,72854.09
2024-02-24T11:16:39.801Z,72854.09
2024-02-24T11:19:13.547Z,72854.09
2024-02-24T11:22:06.717Z,72854.09
2024-02-24T11:24:39.418Z,72854.09
2024-02-24T11:27:08.896Z,72854.09
2024-02-24T11:29:38.433Z,72854.09
2024-02-24T11:32:13.362Z,72854.09
2024-02-24T11:34:46.883Z,72854.09
2024-02-24T11:37:21.353Z,72854.09
2024-02-24T11:39:50.476Z,72854.09
2024-02-24T11:42:24.797Z,72854.09
2024-02-24T11:44:52.502Z,72854.09
2024-02-24T11:47:23.915Z,72854.09
2024-02-24T11:49:51.012Z,72854.09
2024-02-24T11:52:20.933Z,72854.09
2024-02-24T11:54:50.307Z,72854.09
2024-02-24T11:57:21.551Z,72854.09
2024-02-24T11:59:49.441Z,72854.09
2024-02-24T12:02:16.706Z,72854.09
2024-02-24T12:04:46.754Z,72854.09
2024-02-24T12:07:22.407Z,72854.09
2024-02-24T12:09:52.764Z,72854.09
2024-02-24T12:12:24.587Z,72854.09
2024-02-24T12:14:51.549Z,72854.09
2024-02-24T12:17:18.660Z,72854.09
2024-02-24T12:19:48.069Z,72854.09
2024-02-24T12:22:19.781Z,72854.09
2024-02-24T12:24:46.660Z,72854.09
2024-02-24T12:27:16.840Z,72854.09
2024-02-24T12:29:46.017Z,72854.09
2024-02-24T12:32:15.336Z,72854.09
2024-02-24T12:34:49.554Z,72854.09
2024-02-24T12:37:20.957Z,72854.09
2024-02-24T12:39:47.788Z,72854.09
2024-02-24T12:42:16.882Z,72854.09
2024-02-24T12:44:46.191Z,72854.09
2024-02-24T12:47:15.556Z,72854.09
2024-02-24T12:49:42.523Z,72854.09
2024-02-24T12:52:09.445Z,72854.09
2024-02-24T12:54:36.340Z,72854.09
2024-02-24T12:57:08.082Z,72854.09
2024-02-24T12:59:35.047Z,72854.09
2024-02-24T13:02:07.230Z,72854.09
2024-02-24T13:04:36.429Z,72854.09
2024-02-24T13:07:05.728Z,72854.09
2024-02-24T13:09:37.103Z,72854.09
2024-02-24T13:12:07.863Z,72854.09
2024-02-24T13:14:34.814Z,72854.09
2024-02-24T13:17:01.842Z,72854.09
2024-02-24T13:19:31.056Z,72854.09
2024-02-24T13:21:58.133Z,72854.09
2024-02-24T13:24:25.097Z,72854.09
2024-02-24T13:26:56.544Z,72854.09
2024-02-24T13:29:23.736Z,72854.09
2024-02-24T13:31:52.838Z,72854.09
2024-02-24T13:34:19.855Z,72854.09
2024-02-24T13:36:49.262Z,72854.09
2024-02-24T13:39:18.356Z,72854.09
2024-02-24T13:41:47.566Z,72854.09
2024-02-24T13:44:16.813Z,72854.09
2024-02-24T13:46:44.358Z,72854.09
2024-02-24T13:49:14.059Z,72854.09
2024-02-24T13:51:43.480Z,72854.09
2024-02-24T13:54:13.096Z,72854.09
2024-02-24T13:56:44.829Z,72854.09
2024-02-24T13:59:12.021Z,72854.09
2024-02-24T14:01:41.360Z,72854.09
2024-02-24T14:04:08.261Z,72854.09
2024-02-24T14:06:39.971Z,72854.09
2024-02-24T14:09:08.464Z,72854.09
2024-02-24T14:11:38.683Z,72854.09
2024-02-24T14:14:08.240Z,72854.09
2024-02-24T14:16:37.661Z,72854.09
2024-02-24T14:19:06.949Z,72854.09
2024-02-24T14:21:33.873Z,72854.09
2024-02-24T14:24:05.574Z,72854.09
2024-02-24T14:26:34.973Z,72854.09
2024-02-24T14:29:02.715Z,72854.09
2024-02-24T14:31:32.714Z,72854.09
2024-02-24T14:34:04.986Z,72854.09
2024-02-24T14:36:34.390Z,72854.09
2024-02-24T14:39:06.974Z,72854.09
2024-02-24T14:41:36.099Z,72854.09
2024-02-24T14:44:03.717Z,72854.09
2024-02-24T14:46:32.991Z,72854.09
2024-02-24T14:49:07.310Z,72854.09
2024-02-24T14:51:36.531Z,72854.09
2024-02-24T14:54:04.180Z,72854.09
2024-02-24T14:56:35.909Z,72854.09
2024-02-24T14:59:06.389Z,72854.09
2024-02-24T15:01:33.466Z,72854.09
2024-02-24T15:04:02.650Z,72854.09
2024-02-24T15:06:32.070Z,72854.09
2024-02-24T15:09:01.900Z,72854.09
2024-02-24T15:11:28.936Z,72854.09
2024-02-24T15:13:55.853Z,72854.09
2024-02-24T15:16:22.779Z,72854.09
2024-02-24T15:18:54.459Z,72854.09
2024-02-24T15:21:21.379Z,72854.09
2024-02-24T15:23:50.471Z,72854.09
2024-02-24T15:26:17.358Z,72854.09
2024-02-24T15:28:46.675Z,72854.09
2024-02-24T15:31:18.908Z,72854.09
2024-02-24T15:33:45.846Z,72854.09
2024-02-24T15:36:14.109Z,72854.09
2024-02-24T15:38:44.197Z,72854.09
2024-02-24T15:41:11.399Z,72854.09
2024-02-24T15:43:41.103Z,72854.09
2024-02-24T15:46:12.698Z,72854.09
2024-02-24T15:48:40.527Z,72854.09
2024-02-24T15:51:13.332Z,72854.09
2024-02-24T15:53:47.725Z,72854.09
2024-02-24T15:56:17.328Z,72854.09
2024-02-24T15:58:48.614Z,72854.09
2024-02-24T16:01:15.611Z,72854.09
2024-02-24T16:03:44.616Z,72854.09
2024-02-24T16:06:19.377Z,72854.09
2024-02-24T16:08:46.397Z,72854.09
2024-02-24T16:11:16.036Z,72854.09
2024-02-24T16:13:42.909Z,72854.09
2024-02-24T16:16:20.511Z,72854.09
2024-02-24T16:18:49.663Z,72854.09
2024-02-24T16:21:19.777Z,72854.09
2024-02-24T16:23:48.881Z,72854.09
2024-02-24T16:26:16.303Z,72854.09
2024-02-24T16:28:45.654Z,72854.09
2024-02-24T16:31:17.358Z,72854.09
2024-02-24T16:33:44.535Z,72854.09
2024-02-24T16:36:12.309Z,72854.09
2024-02-24T16:38:39.169Z,72854.09
2024-02-24T16:41:08.199Z,72854.09
2024-02-24T16:43:37.402Z,72854.09
2024-02-24T16:46:04.376Z,72854.09
2024-02-24T16:48:35.801Z,72854.09
2024-02-24T16:51:07.626Z,72854.09
2024-02-24T16:53:41.644Z,72854.09
2024-02-24T16:56:08.578Z,72854.09
2024-02-24T16:58:35.426Z,72854.09
2024-02-24T17:01:05.332Z,72854.09
2024-02-24T17:03:34.561Z,72854.09
2024-02-24T17:06:06.425Z,72854.09
2024-02-24T17:08:33.363Z,72854.09
2024-02-24T17:11:02.594Z,72854.09
2024-02-24T17:13:29.538Z,72854.09
2024-02-24T17:15:56.403Z,72854.09
2024-02-24T17:18:33.424Z,72854.09
2024-02-24T17:21:03.262Z,72854.09
2024-02-24T17:23:39.842Z,72854.09
2024-02-24T17:26:09.179Z,72854.09
2024-02-24T17:28:36.191Z,72854.09
2024-02-24T17:31:03.194Z,72854.09
2024-02-24T17:33:32.298Z,72854.09
2024-02-24T17:35:59.266Z,72854.09
2024-02-24T17:38:29.255Z,72854.09
2024-02-24T17:40:57.875Z,72854.09
2024-02-24T17:43:25.945Z,72854.09
2024-02-24T17:45:57.566Z,72854.09
2024-02-24T17:48:29.235Z,72854.09
2024-02-24T17:51:00.814Z,72854.09
2024-02-24T17:53:29.984Z,72854.09
2024-02-24T17:55:59.218Z,72854.09
2024-02-24T17:58:40.712Z,72854.09
2024-02-24T18:01:16.101Z,72854.09
2024-02-24T18:03:43.053Z,72854.09
2024-02-24T18:06:14.560Z,72854.09
2024-02-24T18:08:41.609Z,72854.09
2024-02-24T18:11:11.049Z,72854.09
2024-02-24T18:13:38.652Z,72854.09
2024-02-24T18:16:08.637Z,72854.09
2024-02-24T18:18:40.273Z,72854.09
2024-02-24T18:21:23.631Z,72854.09
2024-02-24T18:23:53.859Z,72854.09
2024-02-24T18:26:25.360Z,72854.09
2024-02-24T18:28:52.418Z,72854.09
2024-02-24T18:31:21.602Z,72854.09
2024-02-24T18:33:50.868Z,72854.09
2024-02-24T18:36:20.162Z,72854.09
2024-02-24T18:38:49.650Z,72854.09
2024-02-24T18:41:18.810Z,72854.09
2024-02-24T18:43:48.150Z,72854.09
2024-02-24T18:46:19.211Z,72854.09
2024-02-24T18:48:51.135Z,72854.09
2024-02-24T18:51:22.834Z,72854.09
2024-02-24T18:53:54.580Z,72854.09
2024-02-24T18:56:23.875Z,72854.09
2024-02-24T18:58:50.740Z,72854.09
2024-02-24T19:01:19.955Z,72854.09
2024-02-24T19:03:46.960Z,72854.09
2024-02-24T19:06:19.652Z,72854.09
2024-02-24T19:08:49.767Z,72854.09
2024-02-24T19:11:16.822Z,72854.09
2024-02-24T19:13:43.716Z,72854.09
2024-02-24T19:16:13.079Z,72854.09
2024-02-24T19:18:44.605Z,72854.09
2024-02-24T19:21:11.835Z,72854.09
2024-02-24T19:23:39.182Z,72854.09
2024-02-24T19:26:09.022Z,72854.09
2024-02-24T19:28:38.275Z,72854.09
2024-02-24T19:31:07.580Z,72854.09
2024-02-24T19:33:34.570Z,72854.09
2024-02-24T19:36:04.182Z,72854.09
2024-02-24T19:38:31.262Z,72854.09
2024-02-24T19:40:58.501Z,72854.09
2024-02-24T19:43:27.932Z,72854.09
2024-02-24T19:45:58.831Z,72854.09
2024-02-24T19:48:30.714Z,72854.09
2024-02-24T19:51:03.897Z,72854.09
2024-02-24T19:53:35.534Z,72854.09
2024-02-24T19:56:02.766Z,72854.09
2024-02-24T19:58:35.017Z,72854.09
2024-02-24T20:01:10.682Z,72854.09
2024-02-24T20:03:41.249Z,72854.09
2024-02-24T20:06:09.289Z,72854.09
2024-02-24T20:08:36.258Z,72854.09
2024-02-24T20:11:05.702Z,72854.09
2024-02-24T20:13:32.531Z,72854.09
2024-02-24T20:16:01.789Z,72854.09
2024-02-24T20:18:30.004Z,72854.09
2024-02-24T20:20:59.519Z,72854.09
2024-02-24T20:23:29.417Z,72854.09
2024-02-24T20:25:59.186Z,72854.09
2024-02-24T20:28:28.303Z,72854.09
2024-02-24T20:30:59.589Z,72854.09
2024-02-24T20:33:26.878Z,72854.09
2024-02-24T20:35:53.706Z,72854.09
2024-02-24T20:38:25.116Z,72854.09
2024-02-24T20:40:53.477Z,72854.09
2024-02-24T20:43:22.842Z,72854.09
2024-02-24T20:45:53.809Z,72854.09
2024-02-24T20:48:23.529Z,72854.09
2024-02-24T20:50:53.014Z,72854.09
2024-02-24T20:53:22.374Z,72854.09
2024-02-24T20:55:53.841Z,72854.09
2024-02-24T20:58:22.878Z,72854.09
2024-02-24T21:00:52.160Z,72854.09
2024-02-24T21:03:19.272Z,72854.09
2024-02-24T21:05:49.038Z,72854.09
2024-02-24T21:08:20.982Z,72854.09
2024-02-24T21:10:50.339Z,72854.09
2024-02-24T21:13:19.873Z,72854.09
2024-02-24T21:15:46.722Z,72854.09
2024-02-24T21:18:13.750Z,72854.09
2024-02-24T21:20:45.220Z,72854.09
2024-02-24T21:23:12.170Z,72854.09
2024-02-24T21:25:38.968Z,72854.09
2024-02-24T21:28:09.666Z,72854.09
2024-02-24T21:30:41.216Z,72854.09
2024-02-24T21:33:10.665Z,72854.09
2024-02-24T21:35:39.443Z,72854.09
2024-02-24T21:38:08.997Z,72854.09
2024-02-24T21:40:38.108Z,72854.09
2024-02-24T21:43:05.955Z,72854.09
2024-02-24T21:45:37.463Z,72854.09
2024-02-24T21:48:07.595Z,72854.09
2024-02-24T21:50:34.570Z,72854.09
2024-02-24T21:53:01.632Z,72854.09
2024-02-24T21:55:31.035Z,72854.09
2024-02-24T21:58:00.188Z,72854.09
2024-02-24T22:00:29.857Z,72854.09
2024-02-24T22:03:00.752Z,72854.09
2024-02-24T22:05:28.199Z,72854.09
2024-02-24T22:07:57.640Z,72854.09
2024-02-24T22:10:31.601Z,72854.09
2024-02-24T22:13:03.110Z,72854.09
2024-02-24T22:15:32.471Z,72854.09
2024-02-24T22:17:59.410Z,72854.09
2024-02-24T22:20:31.364Z,72854.09
2024-02-24T22:23:03.524Z,72854.09
2024-02-24T22:25:32.718Z,72854.09
2024-02-24T22:27:59.649Z,72854.09
2024-02-24T22:30:28.788Z,72854.09
2024-02-24T22:33:00.594Z,72854.09
2024-02-24T22:35:30.032Z,72854.09
2024-02-24T22:38:02.218Z,72854.09
2024-02-24T22:40:33.061Z,72854.09
2024-02-24T22:43:02.395Z,72854.09
2024-02-24T22:45:34.206Z,72854.09
2024-02-24T22:48:01.207Z,72854.09
2024-02-24T22:50:33.442Z,72854.09
2024-02-24T22:53:02.556Z,72854.09
2024-02-24T22:55:34.138Z,72854.09
2024-02-24T22:58:08.568Z,72854.09
2024-02-24T23:00:37.987Z,72854.09
2024-02-24T23:03:10.502Z,72854.09
2024-02-24T23:05:37.386Z,72854.09
2024-02-24T23:08:09.328Z,72854.09
2024-02-24T23:10:36.195Z,72854.09
2024-02-24T23:13:04.292Z,72854.09
2024-02-24T23:15:36.782Z,72854.09
2024-02-24T23:18:09.518Z,72854.09
2024-02-24T23:20:36.560Z,72854.09
2024-02-24T23:23:09.606Z,72854.09
2024-02-24T23:25:37.294Z,72854.09
2024-02-24T23:28:08.338Z,72854.09
2024-02-24T23:30:39.976Z,72854.09
2024-02-24T23:33:11.946Z,72854.09
2024-02-24T23:35:45.942Z,72854.09
2024-02-24T23:38:22.832Z,72854.09
2024-02-24T23:40:49.677Z,72854.09
2024-02-24T23:43:18.776Z,72854.09
2024-02-24T23:45:47.751Z,72854.09
2024-02-24T23:48:19.859Z,72854.09
2024-02-24T23:50:46.892Z,72854.09
2024-02-24T23:53:20.417Z,72854.09
2024-02-24T23:55:47.387Z,72854.09
2024-02-24T23:58:14.307Z,72854.09
